Time;durP1;ratioP1;P1;durP2;ratioP2;P2;SDS_P1;SDS_P2;PMS_P1;PMS_P2;Temp;Humidity;BMP_temperature;BMP_pressure;BME280_temperature;BME280_humidity;BME280_pressure;Samples;Min_cycle;Max_cycle;Signal;HPM_P1;HPM_P2
2021/12/24 00:00:56;;;;;;;4.10;2.35;;;19.00;44.70;;;;;;5052482;28;20032;-90
2021/12/24 00:03:22;;;;;;;4.43;2.50;;;19.00;44.80;;;;;;5034879;28;20134;-90
2021/12/24 00:05:47;;;;;;;4.55;2.95;;;19.00;44.70;;;;;;5052582;28;20025;-88
2021/12/24 00:08:13;;;;;;;3.97;2.53;;;19.00;44.80;;;;;;5051133;28;20025;-88
2021/12/24 00:10:39;;;;;;;3.67;2.60;;;19.00;44.80;;;;;;5052453;28;20067;-87
2021/12/24 00:13:10;;;;;;;3.83;2.55;;;18.90;44.90;;;;;;5051070;28;20033;-90
2021/12/24 00:18:30;;;;;;;2.83;2.45;;;18.90;44.90;;;;;;5052318;28;20155;-88
2021/12/24 00:37:04;;;;;;;3.35;2.20;;;18.60;45.00;;;;;;5052291;28;20533;-89
2021/12/24 00:39:30;;;;;;;3.70;2.55;;;18.60;45.10;;;;;;5052025;28;20029;-89
2021/12/24 00:41:56;;;;;;;2.58;2.13;;;18.60;45.10;;;;;;5050972;28;20676;-89
2021/12/24 00:44:22;;;;;;;3.67;1.95;;;18.60;45.10;;;;;;5053440;28;20028;-89
2021/12/24 00:46:47;;;;;;;2.70;2.00;;;18.60;45.20;;;;;;5055884;28;20037;-90
2021/12/24 00:49:13;;;;;;;3.17;2.15;;;18.50;45.10;;;;;;5055715;28;20049;-89
2021/12/24 00:56:58;;;;;;;3.35;2.20;;;18.50;45.20;;;;;;5056162;28;20378;-90
2021/12/24 00:59:23;;;;;;;2.55;1.98;;;18.40;45.10;;;;;;5054419;28;20089;-87
2021/12/24 01:01:49;;;;;;;2.97;2.00;;;18.40;45.20;;;;;;5054667;28;20025;-89
2021/12/24 01:04:15;;;;;;;2.67;2.17;;;18.40;45.20;;;;;;5055664;28;20020;-90
2021/12/24 01:06:40;;;;;;;3.05;2.10;;;18.40;45.20;;;;;;5055430;28;20473;-88
2021/12/24 01:09:06;;;;;;;2.58;2.10;;;18.40;45.20;;;;;;5054455;28;20036;-87
2021/12/24 01:11:32;;;;;;;3.03;2.13;;;18.40;45.30;;;;;;5055334;28;20438;-88
2021/12/24 01:13:59;;;;;;;2.35;1.80;;;18.30;45.30;;;;;;5054313;28;20086;-89
2021/12/24 01:16:42;;;;;;;3.35;2.00;;;18.30;45.30;;;;;;5054276;28;20100;-88
2021/12/24 01:19:14;;;;;;;2.63;1.75;;;18.30;45.30;;;;;;5054349;28;20044;-88
2021/12/24 01:22:02;;;;;;;2.42;1.70;;;18.30;45.40;;;;;;5054233;28;20029;-87
2021/12/24 01:24:36;;;;;;;2.53;1.83;;;18.20;45.40;;;;;;5055303;28;20021;-90
2021/12/24 01:27:26;;;;;;;2.55;1.80;;;18.20;45.40;;;;;;5055291;28;20055;-89
2021/12/24 01:37:51;;;;;;;3.58;1.88;;;18.20;45.40;;;;;;5053907;28;20033;-88
2021/12/24 01:38:16;;;;;;;1.85;1.60;;;18.10;45.50;;;;;;5055017;28;20023;-90
2021/12/24 01:41:04;;;;;;;3.78;1.70;;;18.10;45.50;;;;;;5053737;28;20025;-90
2021/12/24 01:43:29;;;;;;;2.20;1.70;;;18.10;45.60;;;;;;5054879;28;20025;-89
2021/12/24 01:45:58;;;;;;;1.75;1.45;;;18.00;45.60;;;;;;5037398;28;20056;-87
2021/12/24 01:48:24;;;;;;;3.25;1.90;;;18.00;45.50;;;;;;5054669;28;20553;-89
2021/12/24 01:50:51;;;;;;;2.47;1.65;;;18.00;45.60;;;;;;5054807;28;20024;-89
2021/12/24 01:53:21;;;;;;;2.50;1.63;;;18.00;45.70;;;;;;5053485;28;20482;-90
2021/12/24 01:55:48;;;;;;;1.88;1.40;;;18.00;45.70;;;;;;5053338;28;20078;-90
2021/12/24 01:58:18;;;;;;;2.55;1.52;;;17.90;45.60;;;;;;5054521;28;20474;-88
2021/12/24 02:00:46;;;;;;;2.15;1.67;;;17.90;45.70;;;;;;5054337;28;20431;-88
2021/12/24 02:03:12;;;;;;;2.20;1.60;;;17.90;45.70;;;;;;5054621;28;20033;-88
2021/12/24 02:05:40;;;;;;;1.80;1.60;;;17.90;45.70;;;;;;5053267;28;20058;-89
2021/12/24 02:08:06;;;;;;;2.00;1.58;;;17.90;45.80;;;;;;5053463;28;20063;-90
2021/12/24 02:10:32;;;;;;;2.17;1.75;;;17.80;45.70;;;;;;5054298;28;20542;-88
2021/12/24 02:12:57;;;;;;;2.85;1.70;;;17.80;45.80;;;;;;5054389;28;20108;-90
2021/12/24 02:18:37;;;;;;;2.30;1.40;;;17.80;45.80;;;;;;5054716;28;20032;-89
2021/12/24 02:29:13;;;;;;;1.45;1.20;;;17.70;46.00;;;;;;5054111;28;20576;-89
2021/12/24 02:31:38;;;;;;;2.60;1.50;;;17.70;46.00;;;;;;5052844;28;20037;-89
2021/12/24 02:34:04;;;;;;;1.85;1.45;;;17.70;46.00;;;;;;5052791;28;20025;-88
2021/12/24 02:36:30;;;;;;;2.40;1.30;;;17.60;46.10;;;;;;5052687;28;20032;-88
2021/12/24 02:38:56;;;;;;;2.78;1.40;;;17.60;45.90;;;;;;5052944;28;20033;-89
2021/12/24 02:41:22;;;;;;;2.03;1.42;;;17.60;46.00;;;;;;5052553;28;20458;-88
2021/12/24 02:43:48;;;;;;;1.92;1.67;;;17.60;46.10;;;;;;5052552;28;20032;-88
2021/12/24 02:46:27;;;;;;;1.90;1.50;;;17.60;46.10;;;;;;5053726;28;20104;-88
2021/12/24 02:54:05;;;;;;;1.60;1.30;;;17.50;46.10;;;;;;5053482;28;20108;-88
2021/12/24 02:56:37;;;;;;;1.45;1.15;;;17.50;46.20;;;;;;5053530;28;20035;-89
2021/12/24 02:59:07;;;;;;;1.67;1.08;;;17.50;46.20;;;;;;5052216;28;20074;-88
2021/12/24 03:01:39;;;;;;;1.52;1.13;;;17.40;46.20;;;;;;5052420;28;20044;-90
2021/12/24 03:04:06;;;;;;;1.75;1.30;;;17.40;46.30;;;;;;5052088;28;20120;-89
2021/12/24 03:06:35;;;;;;;2.85;1.50;;;17.40;46.30;;;;;;5053156;28;20461;-88
2021/12/24 03:09:05;;;;;;;1.70;1.20;;;17.40;46.40;;;;;;5051885;28;20029;-89
2021/12/24 03:11:31;;;;;;;1.48;1.27;;;17.40;46.40;;;;;;5035751;28;20386;-87
2021/12/24 03:13:57;;;;;;;1.48;1.30;;;17.40;46.50;;;;;;5035211;28;20043;-88
2021/12/24 03:16:22;;;;;;;1.30;1.10;;;17.30;46.30;;;;;;5053224;28;20096;-89
2021/12/24 03:18:49;;;;;;;2.17;1.30;;;17.30;46.40;;;;;;5051837;28;20535;-87
2021/12/24 03:21:20;;;;;;;1.67;1.10;;;17.30;47.40;;;;;;5051781;28;20075;-90
2021/12/24 03:24:34;;;;;;;1.48;1.20;;;17.30;46.50;;;;;;5053243;28;20017;-90
2021/12/24 03:26:41;;;;;;;1.70;1.05;;;17.30;46.50;;;;;;5052600;28;20466;-89
2021/12/24 03:29:09;;;;;;;1.27;1.00;;;17.20;46.40;;;;;;5051852;28;20040;-87
2021/12/24 03:31:37;;;;;;;1.17;1.05;;;17.20;46.60;;;;;;5051426;28;20021;-89
2021/12/24 03:34:04;;;;;;;1.83;1.20;;;17.20;46.50;;;;;;5051440;28;20055;-87
2021/12/24 03:36:30;;;;;;;1.30;1.20;;;17.20;46.50;;;;;;5052782;28;20066;-89
2021/12/24 03:38:56;;;;;;;2.13;1.00;;;17.20;46.60;;;;;;5051378;28;20025;-90
2021/12/24 03:41:22;;;;;;;1.27;1.00;;;17.10;46.50;;;;;;5052492;28;20021;-88
2021/12/24 03:43:48;;;;;;;2.60;1.20;;;17.10;46.60;;;;;;5052555;28;20206;-89
2021/12/24 03:46:15;;;;;;;1.38;1.20;;;17.10;46.60;;;;;;5052549;28;20033;-88
2021/12/24 03:51:45;;;;;;;1.63;1.20;;;17.10;46.60;;;;;;5052542;28;20029;-87
2021/12/24 03:56:49;;;;;;;1.00;0.90;;;17.00;46.70;;;;;;5052717;28;20067;-87
2021/12/24 03:59:15;;;;;;;1.05;0.95;;;17.00;46.70;;;;;;5052192;28;20037;-87
2021/12/24 04:01:41;;;;;;;1.63;1.10;;;17.00;46.70;;;;;;5051210;28;20486;-88
2021/12/24 04:04:11;;;;;;;1.08;0.98;;;17.00;46.80;;;;;;5052182;28;20395;-90
2021/12/24 04:06:37;;;;;;;1.95;1.08;;;17.00;46.80;;;;;;5051102;28;20029;-89
2021/12/24 04:09:06;;;;;;;1.85;1.00;;;17.00;46.90;;;;;;5052077;28;20040;-89
2021/12/24 04:11:32;;;;;;;1.50;1.10;;;17.00;46.80;;;;;;5051117;28;20119;-90
2021/12/24 04:13:58;;;;;;;1.10;1.00;;;17.00;46.90;;;;;;5052164;28;20432;-89
2021/12/24 04:16:23;;;;;;;1.10;0.90;;;16.90;46.90;;;;;;5051023;28;20025;-88
2021/12/24 04:19:01;;;;;;;1.20;0.90;;;16.90;46.80;;;;;;5050349;28;20028;-89
2021/12/24 04:26:56;;;;;;;1.13;1.00;;;16.90;47.00;;;;;;5052489;28;20385;-89
2021/12/24 04:29:21;;;;;;;1.38;0.95;;;16.80;46.90;;;;;;5052070;28;20029;-88
2021/12/24 04:31:55;;;;;;;1.33;1.00;;;16.80;47.00;;;;;;5050835;28;20021;-88
2021/12/24 04:34:26;;;;;;;0.90;0.75;;;16.80;47.00;;;;;;5052045;28;20605;-89
2021/12/24 04:39:38;;;;;;;1.00;0.90;;;16.80;47.10;;;;;;5051801;28;20078;-87
2021/12/24 05:03:42;;;;;;;1.25;1.10;;;16.70;47.20;;;;;;5051979;28;20036;-89
2021/12/24 05:06:16;;;;;;;1.08;0.88;;;16.60;47.10;;;;;;5050472;28;20055;-87
2021/12/24 05:11:11;;;;;;;1.15;0.82;;;16.60;47.20;;;;;;5051767;28;20025;-89
2021/12/24 05:13:38;;;;;;;1.35;1.02;;;16.60;47.20;;;;;;5051375;28;20039;-88
2021/12/24 05:16:21;;;;;;;1.00;0.85;;;16.60;47.20;;;;;;5051758;28;20876;-90
2021/12/24 05:23:58;;;;;;;1.27;0.95;;;16.50;47.40;;;;;;5051943;28;20503;-89
2021/12/24 05:26:24;;;;;;;1.30;0.90;;;16.50;47.30;;;;;;5051322;28;20032;-88
2021/12/24 05:28:49;;;;;;;1.42;1.00;;;16.50;47.40;;;;;;5050512;28;20044;-88
2021/12/24 05:31:15;;;;;;;0.80;0.80;;;16.50;47.40;;;;;;5053933;28;20025;-89
2021/12/24 05:33:40;;;;;;;0.85;0.85;;;16.40;47.30;;;;;;5053770;28;20025;-87
2021/12/24 05:36:06;;;;;;;1.35;0.95;;;16.40;47.30;;;;;;5053766;28;20021;-87
2021/12/24 05:38:32;;;;;;;1.45;1.08;;;16.40;47.50;;;;;;5053491;28;20548;-87
2021/12/24 05:40:58;;;;;;;1.27;1.00;;;16.40;47.40;;;;;;5037059;28;20025;-90
2021/12/24 05:43:24;;;;;;;1.40;1.00;;;16.40;47.40;;;;;;5054716;28;20421;-88
2021/12/24 05:45:49;;;;;;;1.00;0.90;;;16.40;47.40;;;;;;5054905;28;20036;-87
2021/12/24 05:48:15;;;;;;;1.10;1.00;;;16.40;47.40;;;;;;5054558;28;20045;-87
2021/12/24 05:50:41;;;;;;;1.58;1.02;;;16.40;47.40;;;;;;5053481;28;20029;-88
2021/12/24 05:53:06;;;;;;;1.17;1.00;;;16.40;47.40;;;;;;5054748;28;20062;-88
2021/12/24 05:55:32;;;;;;;1.40;1.15;;;16.30;47.40;;;;;;5054575;28;20108;-89
2021/12/24 05:57:58;;;;;;;1.20;1.10;;;16.30;47.40;;;;;;5053639;28;20029;-89
2021/12/24 06:00:23;;;;;;;0.95;0.90;;;16.30;47.40;;;;;;5054415;28;20048;-87
2021/12/24 06:02:49;;;;;;;1.10;0.80;;;16.30;47.40;;;;;;5053336;28;20078;-89
2021/12/24 06:05:15;;;;;;;1.13;1.00;;;16.30;47.50;;;;;;5054416;28;20036;-89
2021/12/24 06:07:40;;;;;;;1.13;1.00;;;16.30;47.50;;;;;;5053173;28;20031;-87
2021/12/24 06:10:07;;;;;;;1.45;1.00;;;16.30;47.60;;;;;;5053081;28;20040;-89
2021/12/24 06:12:33;;;;;;;1.25;1.15;;;16.30;47.60;;;;;;5054398;28;20078;-87
2021/12/24 06:15:04;;;;;;;1.10;0.93;;;16.30;47.70;;;;;;5054070;28;20017;-87
2021/12/24 06:17:29;;;;;;;1.40;1.10;;;16.30;47.80;;;;;;5053060;28;20023;-89
2021/12/24 06:19:55;;;;;;;1.10;1.00;;;16.30;47.90;;;;;;5054178;28;20096;-88
2021/12/24 06:22:21;;;;;;;1.08;0.90;;;16.30;47.90;;;;;;5054254;28;20113;-87
2021/12/24 06:24:46;;;;;;;2.13;1.00;;;16.40;47.90;;;;;;5052850;28;20044;-87
2021/12/24 06:27:12;;;;;;;1.52;1.10;;;16.50;48.00;;;;;;5052811;28;20565;-87
2021/12/24 06:29:37;;;;;;;0.82;0.82;;;16.50;47.80;;;;;;5053913;28;20112;-88
2021/12/24 06:32:03;;;;;;;1.00;0.90;;;16.60;47.70;;;;;;5052648;28;20052;-88
2021/12/24 06:34:31;;;;;;;1.20;1.00;;;16.70;47.60;;;;;;5052782;28;20025;-89
2021/12/24 06:36:58;;;;;;;0.85;0.80;;;16.90;47.50;;;;;;5052520;28;20025;-88
2021/12/24 06:39:23;;;;;;;1.00;0.90;;;17.00;47.30;;;;;;5052501;28;20116;-90
2021/12/24 06:41:49;;;;;;;1.00;0.90;;;17.20;47.10;;;;;;5053305;28;20056;-89
2021/12/24 06:44:15;;;;;;;0.98;0.90;;;17.30;46.90;;;;;;5053746;28;20063;-88
2021/12/24 06:46:42;;;;;;;0.90;0.80;;;17.50;47.50;;;;;;5052470;28;20037;-88
2021/12/24 06:49:10;;;;;;;0.80;0.80;;;17.70;46.30;;;;;;5052126;28;20080;-89
2021/12/24 06:51:35;;;;;;;0.80;0.80;;;17.90;46.00;;;;;;5053901;28;20025;-88
2021/12/24 06:54:01;;;;;;;0.82;0.77;;;18.10;45.70;;;;;;5053363;28;20025;-90
2021/12/24 06:56:27;;;;;;;1.23;0.70;;;18.30;45.40;;;;;;5052430;28;20378;-87
2021/12/24 06:58:52;;;;;;;0.75;0.70;;;18.60;45.10;;;;;;5053548;28;20071;-87
2021/12/24 07:01:20;;;;;;;0.70;0.60;;;18.70;44.80;;;;;;5053404;28;20064;-90
2021/12/24 07:03:45;;;;;;;0.70;0.70;;;19.00;44.50;;;;;;5052243;28;20099;-90
2021/12/24 07:06:11;;;;;;;1.15;0.75;;;19.10;44.40;;;;;;5052081;28;20115;-87
2021/12/24 07:08:37;;;;;;;0.80;0.68;;;19.30;44.20;;;;;;5052132;28;20025;-90
2021/12/24 07:11:03;;;;;;;1.25;0.88;;;19.40;43.80;;;;;;5051919;28;20029;-87
2021/12/24 07:13:29;;;;;;;0.70;0.60;;;19.60;43.60;;;;;;5053246;28;20029;-88
2021/12/24 07:15:55;;;;;;;0.90;0.73;;;19.70;43.40;;;;;;5051965;28;20021;-87
2021/12/24 07:18:21;;;;;;;0.93;0.60;;;19.80;43.20;;;;;;5053085;28;20029;-90
2021/12/24 07:20:47;;;;;;;0.70;0.63;;;20.00;43.10;;;;;;5053028;28;20029;-87
2021/12/24 07:23:13;;;;;;;0.70;0.60;;;20.00;42.90;;;;;;5051715;28;20024;-90
2021/12/24 07:25:39;;;;;;;0.70;0.60;;;20.10;42.80;;;;;;5051963;28;20029;-90
2021/12/24 07:28:05;;;;;;;2.05;0.60;;;20.20;42.70;;;;;;5051695;28;20386;-89
2021/12/24 07:30:32;;;;;;;2.33;0.80;;;20.30;42.60;;;;;;5052694;28;20499;-88
2021/12/24 07:32:58;;;;;;;7.43;0.93;;;20.30;42.60;;;;;;5052747;28;20094;-87
2021/12/24 07:35:24;;;;;;;4.75;0.60;;;20.30;42.50;;;;;;5052292;28;20425;-87
2021/12/24 07:37:49;;;;;;;5.57;0.80;;;20.30;42.60;;;;;;5052536;28;20028;-87
2021/12/24 07:40:16;;;;;;;1.23;0.70;;;20.40;42.60;;;;;;5051224;28;20451;-86
2021/12/24 07:42:47;;;;;;;2.25;0.70;;;20.40;42.60;;;;;;5052465;28;20128;-86
2021/12/24 07:45:14;;;;;;;4.93;0.90;;;20.40;43.60;;;;;;5052429;28;20512;-87
2021/12/24 07:47:42;;;;;;;12.90;1.02;;;20.40;42.70;;;;;;5052252;28;20104;-87
2021/12/24 07:52:57;;;;;;;7.53;0.98;;;20.50;42.90;;;;;;5051914;28;20028;-87
2021/12/24 07:55:22;;;;;;;4.30;0.75;;;20.40;42.90;;;;;;5049984;28;20033;-86
2021/12/24 07:57:51;;;;;;;5.43;1.00;;;20.40;43.00;;;;;;5052164;28;20028;-87
2021/12/24 08:00:18;;;;;;;3.63;0.80;;;20.40;43.20;;;;;;5052218;28;20466;-88
2021/12/24 08:02:45;;;;;;;4.80;0.90;;;20.40;43.30;;;;;;5052267;28;20035;-87
2021/12/24 08:05:14;;;;;;;4.32;0.77;;;20.40;43.40;;;;;;5052108;28;20025;-88
2021/12/24 08:07:39;;;;;;;5.43;0.70;;;20.40;43.50;;;;;;5052226;28;20071;-88
2021/12/24 08:10:05;;;;;;;3.28;0.95;;;20.40;43.50;;;;;;5051821;28;20029;-88
2021/12/24 08:12:31;;;;;;;1.92;1.00;;;20.40;43.60;;;;;;5050344;28;20029;-85
2021/12/24 08:14:56;;;;;;;8.93;0.90;;;20.40;43.60;;;;;;5051332;28;20090;-88
2021/12/24 08:17:22;;;;;;;3.67;0.82;;;20.40;43.70;;;;;;5051745;28;20029;-86
2021/12/24 08:19:47;;;;;;;7.88;0.82;;;20.40;43.80;;;;;;5049958;28;20100;-88
2021/12/24 08:22:13;;;;;;;3.00;0.60;;;20.40;43.90;;;;;;5051537;28;20021;-89
2021/12/24 08:24:39;;;;;;;5.28;0.80;;;20.40;44.00;;;;;;5050254;28;20029;-87
2021/12/24 08:27:06;;;;;;;5.47;0.63;;;20.30;44.00;;;;;;5049066;28;20082;-87
2021/12/24 08:29:32;;;;;;;5.30;0.88;;;20.30;44.10;;;;;;5050397;28;20035;-87
2021/12/24 08:31:58;;;;;;;2.95;0.75;;;20.30;44.20;;;;;;5051685;28;20386;-88
2021/12/24 08:34:24;;;;;;;2.97;0.75;;;20.30;44.20;;;;;;5050347;28;20021;-87
2021/12/24 08:36:52;;;;;;;3.13;0.73;;;20.30;44.30;;;;;;5051043;28;20025;-89
2021/12/24 08:39:19;;;;;;;2.40;0.57;;;20.30;44.40;;;;;;5051187;28;20032;-87
2021/12/24 08:41:45;;;;;;;4.45;0.70;;;20.20;44.40;;;;;;5050871;28;20544;-88
2021/12/24 08:44:11;;;;;;;3.03;0.80;;;20.20;44.50;;;;;;5052086;28;20059;-87
2021/12/24 08:46:37;;;;;;;4.38;0.90;;;20.20;44.50;;;;;;5051709;28;20074;-88
2021/12/24 08:49:04;;;;;;;2.30;0.90;;;20.20;44.60;;;;;;5049900;28;20579;-89
2021/12/24 08:51:30;;;;;;;4.82;0.80;;;20.10;44.60;;;;;;5049610;28;20040;-88
2021/12/24 08:53:55;;;;;;;5.68;0.70;;;20.10;44.70;;;;;;5051446;28;20425;-89
2021/12/24 08:56:24;;;;;;;2.75;0.57;;;20.10;44.70;;;;;;5050985;28;20025;-87
2021/12/24 08:58:50;;;;;;;3.80;0.60;;;20.10;44.80;;;;;;5049897;28;20028;-89
2021/12/24 09:01:16;;;;;;;3.97;0.90;;;20.10;44.80;;;;;;5049819;28;20092;-88
2021/12/24 09:03:41;;;;;;;3.72;0.60;;;20.10;44.90;;;;;;5051640;28;20107;-89
2021/12/24 09:06:07;;;;;;;5.22;1.02;;;20.00;44.90;;;;;;5052994;28;20478;-87
2021/12/24 09:08:34;;;;;;;4.35;0.80;;;20.00;44.80;;;;;;5055335;28;20032;-88
2021/12/24 09:11:00;;;;;;;2.90;0.80;;;20.00;44.90;;;;;;5053833;28;20367;-87
2021/12/24 09:13:26;;;;;;;5.05;1.17;;;20.00;45.00;;;;;;5054514;28;20071;-88
2021/12/24 09:15:53;;;;;;;4.85;0.90;;;20.00;45.10;;;;;;5054156;28;20074;-88
2021/12/24 09:18:20;;;;;;;7.78;1.05;;;20.00;45.10;;;;;;5053959;28;20029;-89
2021/12/24 09:20:46;;;;;;;4.57;0.95;;;20.00;45.20;;;;;;5053879;28;20024;-90
2021/12/24 09:23:12;;;;;;;4.22;0.90;;;20.00;45.20;;;;;;5053976;28;20074;-88
2021/12/24 09:25:38;;;;;;;4.78;0.95;;;20.00;45.30;;;;;;5053678;28;20021;-88
2021/12/24 09:28:05;;;;;;;6.20;0.77;;;19.90;45.10;;;;;;5053807;28;20057;-88
2021/12/24 09:30:32;;;;;;;3.58;0.80;;;20.00;45.20;;;;;;5053883;28;20546;-89
2021/12/24 09:32:58;;;;;;;5.93;1.63;;;19.90;45.20;;;;;;5053766;28;20079;-89
2021/12/24 09:35:25;;;;;;;9.40;0.90;;;19.90;45.30;;;;;;5053513;28;20029;-88
2021/12/24 09:37:51;;;;;;;3.28;0.70;;;19.90;45.20;;;;;;5053289;28;20021;-88
2021/12/24 09:40:18;;;;;;;3.90;0.93;;;19.90;45.30;;;;;;5055342;28;20025;-88
2021/12/24 09:42:45;;;;;;;4.63;0.95;;;19.90;45.20;;;;;;5054634;28;20107;-88
2021/12/24 09:45:11;;;;;;;6.35;1.10;;;19.90;45.30;;;;;;5054647;28;20025;-89
2021/12/24 09:47:39;;;;;;;4.97;1.38;;;19.90;45.30;;;;;;5053707;28;20104;-89
2021/12/24 09:50:07;;;;;;;9.10;1.35;;;19.90;45.20;;;;;;5053713;28;20429;-90
2021/12/24 09:52:34;;;;;;;10.13;1.20;;;19.90;45.30;;;;;;5055286;28;20029;-90
2021/12/24 09:55:11;;;;;;;9.40;1.30;;;19.90;45.30;;;;;;5053820;28;20025;-90
2021/12/24 09:57:37;;;;;;;9.27;1.40;;;19.90;45.30;;;;;;5055023;28;20055;-91
2021/12/24 10:00:06;;;;;;;8.23;1.40;;;19.90;45.30;;;;;;5053675;28;20457;-88
2021/12/24 10:02:45;;;;;;;15.13;1.48;;;19.90;45.30;;;;;;5053341;28;20049;-88
2021/12/24 10:05:38;;;;;;;17.00;1.70;;;19.90;45.40;;;;;;5053647;28;20049;-87
2021/12/24 10:08:10;;;;;;;6.25;1.30;;;19.90;45.40;;;;;;5052853;28;20505;-87
2021/12/24 10:10:43;;;;;;;8.35;1.05;;;19.90;45.40;;;;;;5053240;28;20056;-90
2021/12/24 10:13:27;;;;;;;;;;;19.90;45.50;;;;;;5053465;28;20116;-89
2021/12/24 10:15:55;;;;;;;7.35;1.33;;;19.90;45.50;;;;;;5054148;28;19908;-90
2021/12/24 10:18:44;;;;;;;6.82;1.20;;;19.90;45.60;;;;;;5053616;28;20648;-92
2021/12/24 10:21:28;;;;;;;8.25;1.25;;;19.90;45.50;;;;;;5054539;28;20056;-90
2021/12/24 10:23:55;;;;;;;7.68;1.38;;;19.90;45.40;;;;;;5053412;28;20047;-87
2021/12/24 10:26:23;;;;;;;6.63;0.93;;;20.00;45.50;;;;;;5054065;28;20056;-91
2021/12/24 10:28:53;;;;;;;6.25;1.10;;;20.00;45.50;;;;;;5048713;28;20071;-91
2021/12/24 10:31:21;;;;;;;10.75;1.13;;;20.00;45.50;;;;;;5054247;28;20108;-91
2021/12/24 10:34:09;;;;;;;9.00;1.30;;;19.90;45.50;;;;;;5046919;28;20029;-92
2021/12/24 10:37:13;;;;;;;6.95;1.00;;;20.00;45.50;;;;;;5055067;28;20028;-89
2021/12/24 10:39:57;;;;;;;8.85;1.30;;;20.00;45.50;;;;;;5034650;28;20060;-93
2021/12/24 10:42:29;;;;;;;8.40;1.50;;;20.00;45.50;;;;;;5078608;28;20031;-92
2021/12/24 10:44:57;;;;;;;7.43;1.10;;;20.00;45.50;;;;;;5054208;28;20123;-92
2021/12/24 10:47:29;;;;;;;9.23;1.20;;;20.00;45.50;;;;;;5036515;28;20024;-89
2021/12/24 10:53:32;;;;;;;7.25;1.42;;;20.00;45.60;;;;;;5033146;28;20041;-91
2021/12/24 10:55:54;;;;;;;8.93;1.38;;;20.00;45.40;;;;;;5033742;28;20120;-89
2021/12/24 10:58:23;;;;;;;4.80;1.30;;;20.00;45.40;;;;;;5033885;28;20113;-91
2021/12/24 11:00:54;;;;;;;5.07;1.10;;;20.00;45.40;;;;;;5034431;28;20143;-90
2021/12/24 11:03:29;;;;;;;8.55;1.08;;;20.00;45.20;;;;;;5066335;28;20768;-88
2021/12/24 11:06:13;;;;;;;7.55;0.98;;;20.00;45.20;;;;;;5034143;28;20040;-93
2021/12/24 11:08:40;;;;;;;5.88;1.15;;;20.00;45.20;;;;;;5032709;28;20428;-90
2021/12/24 11:11:07;;;;;;;3.67;1.05;;;20.00;45.20;;;;;;5032553;28;20467;-92
2021/12/24 11:13:44;;;;;;;5.95;0.80;;;20.00;45.20;;;;;;5066505;28;20033;-91
2021/12/24 11:16:19;;;;;;;7.68;1.08;;;20.00;46.10;;;;;;5066252;28;20378;-91
2021/12/24 11:18:58;;;;;;;6.43;1.00;;;20.00;45.10;;;;;;5033378;28;20017;-91
2021/12/24 11:21:25;;;;;;;3.55;0.70;;;20.00;45.10;;;;;;5033478;28;20013;-91
2021/12/24 11:23:52;;;;;;;4.95;0.90;;;20.00;45.10;;;;;;5033847;28;20032;-89
2021/12/24 11:26:28;;;;;;;4.57;1.10;;;20.00;45.10;;;;;;5032387;28;20029;-90
2021/12/24 11:28:55;;;;;;;9.82;1.58;;;20.00;45.10;;;;;;5032263;28;20052;-91
2021/12/24 11:31:23;;;;;;;8.95;1.60;;;20.00;45.20;;;;;;5033193;28;20037;-91
2021/12/24 11:33:52;;;;;;;11.55;2.50;;;20.00;45.20;;;;;;5065591;28;20037;-90
2021/12/24 11:36:20;;;;;;;17.85;3.80;;;20.00;45.30;;;;;;5033004;28;20680;-87
2021/12/24 11:38:51;;;;;;;17.80;4.55;;;20.00;45.30;;;;;;5033035;28;20022;-87
2021/12/24 11:41:20;;;;;;;22.92;4.63;;;20.00;45.60;;;;;;5032669;28;20049;-87
2021/12/24 11:43:48;;;;;;;18.23;4.30;;;20.00;45.70;;;;;;5033003;28;20112;-88
2021/12/24 11:46:17;;;;;;;18.02;4.25;;;20.00;45.80;;;;;;5064851;28;20026;-89
2021/12/24 11:48:44;;;;;;;21.75;5.32;;;20.00;45.80;;;;;;5032596;28;20049;-88
2021/12/24 11:51:15;;;;;;;19.27;4.82;;;20.00;45.90;;;;;;5032635;28;20064;-89
2021/12/24 11:53:41;;;;;;;21.70;4.85;;;20.00;45.80;;;;;;5064708;28;20060;-89
2021/12/24 11:56:13;;;;;;;18.10;4.25;;;20.00;45.80;;;;;;5032399;28;20049;-88
2021/12/24 11:58:50;;;;;;;15.23;5.07;;;20.00;45.90;;;;;;5032680;28;20024;-89
2021/12/24 12:01:19;;;;;;;19.70;5.40;;;20.00;45.90;;;;;;5032749;28;20022;-88
2021/12/24 12:03:53;;;;;;;15.85;4.80;;;19.90;45.90;;;;;;5064837;28;20083;-88
2021/12/24 12:06:22;;;;;;;21.02;4.57;;;20.00;45.90;;;;;;5064892;28;20036;-86
2021/12/24 12:09:10;;;;;;;19.23;5.30;;;20.00;46.00;;;;;;5032651;28;20432;-87
2021/12/24 12:11:39;;;;;;;19.50;4.68;;;19.90;46.00;;;;;;5031785;28;20029;-88
2021/12/24 12:14:27;;;;;;;15.18;4.32;;;19.90;46.00;;;;;;5032325;28;20036;-89
2021/12/24 12:16:56;;;;;;;16.65;4.57;;;20.00;46.20;;;;;;5031480;28;20029;-88
2021/12/24 12:22:28;;;;;;;15.52;4.53;;;19.90;46.10;;;;;;5032576;28;20154;-86
2021/12/24 12:24:58;;;;;;;15.18;5.00;;;19.90;46.20;;;;;;5032297;28;20029;-90
2021/12/24 12:27:57;;;;;;;14.85;4.72;;;19.90;46.20;;;;;;5032360;28;20057;-87
2021/12/24 12:30:29;;;;;;;19.52;4.78;;;19.90;46.20;;;;;;5027916;28;20037;-88
2021/12/24 12:33:14;;;;;;;16.70;4.35;;;19.90;46.20;;;;;;5064277;28;20034;-86
2021/12/24 12:36:02;;;;;;;17.55;5.35;;;19.90;46.30;;;;;;5064518;28;20029;-87
2021/12/24 12:38:35;;;;;;;17.20;4.68;;;19.90;46.40;;;;;;5032769;28;20022;-86
2021/12/24 12:41:19;;;;;;;16.58;4.47;;;19.90;46.40;;;;;;5034785;28;20558;-87
2021/12/24 12:43:46;;;;;;;16.52;4.43;;;19.90;46.70;;;;;;5036055;28;20034;-89
2021/12/24 12:46:21;;;;;;;13.68;3.85;;;19.80;46.70;;;;;;5035616;28;20021;-89
2021/12/24 12:48:50;;;;;;;15.93;4.10;;;19.80;46.50;;;;;;5035789;28;20076;-89
2021/12/24 12:51:16;;;;;;;16.33;3.88;;;19.80;46.60;;;;;;5035640;28;20084;-85
2021/12/24 12:53:42;;;;;;;10.65;3.72;;;19.80;46.60;;;;;;5033892;28;20034;-88
2021/12/24 12:56:20;;;;;;;13.85;4.07;;;19.80;46.50;;;;;;5067795;28;20032;-89
2021/12/24 12:58:56;;;;;;;10.20;3.90;;;19.80;46.50;;;;;;5035687;28;20025;-88
2021/12/24 13:01:23;;;;;;;12.48;4.05;;;19.80;46.50;;;;;;5050983;28;20045;-89
2021/12/24 13:03:57;;;;;;;15.98;3.80;;;19.80;46.50;;;;;;5035663;28;20412;-88
2021/12/24 13:06:41;;;;;;;14.45;3.75;;;19.80;46.50;;;;;;5067549;28;20033;-88
2021/12/24 13:09:18;;;;;;;11.50;3.50;;;19.80;46.50;;;;;;5067590;28;20032;-88
2021/12/24 13:11:47;;;;;;;11.07;3.33;;;19.80;46.50;;;;;;5034944;28;20530;-88
2021/12/24 13:14:14;;;;;;;12.40;3.30;;;19.80;46.50;;;;;;5034965;28;20405;-89
2021/12/24 13:16:49;;;;;;;10.48;3.55;;;19.80;46.50;;;;;;5035019;28;20025;-89
2021/12/24 13:24:40;;;;;;;10.13;2.85;;;19.80;46.60;;;;;;5035084;28;20095;-88
2021/12/24 13:27:05;;;;;;;11.07;3.30;;;19.80;46.50;;;;;;5050180;28;20087;-89
2021/12/24 13:29:31;;;;;;;11.38;2.90;;;19.80;46.40;;;;;;5067288;28;20025;-88
2021/12/24 13:31:59;;;;;;;8.20;2.72;;;19.80;46.50;;;;;;5034850;28;20543;-88
2021/12/24 13:34:25;;;;;;;12.48;3.15;;;19.80;46.40;;;;;;5065531;28;20027;-88
2021/12/24 13:36:52;;;;;;;9.65;3.08;;;19.80;46.30;;;;;;5066645;28;20025;-89
2021/12/24 13:39:23;;;;;;;8.02;2.90;;;19.80;46.30;;;;;;5066802;28;20117;-88
2021/12/24 13:42:07;;;;;;;11.70;3.28;;;19.80;46.30;;;;;;5034829;28;20022;-88
2021/12/24 13:44:34;;;;;;;10.57;3.10;;;19.80;46.30;;;;;;5049019;28;20053;-87
2021/12/24 13:47:01;;;;;;;10.10;2.80;;;19.80;46.40;;;;;;5066647;28;20029;-86
2021/12/24 13:54:46;;;;;;;8.23;2.53;;;19.90;46.50;;;;;;5034524;28;20028;-89
2021/12/24 13:57:17;;;;;;;10.50;2.83;;;19.90;46.50;;;;;;5034384;28;20116;-89
2021/12/24 13:59:43;;;;;;;10.93;3.08;;;19.90;46.50;;;;;;5034627;28;20452;-89
2021/12/24 14:02:09;;;;;;;8.68;2.45;;;19.90;46.50;;;;;;5034366;28;20104;-90
2021/12/24 14:04:35;;;;;;;10.30;2.42;;;19.90;46.60;;;;;;5066481;28;20060;-89
2021/12/24 14:07:01;;;;;;;9.73;2.53;;;20.00;46.60;;;;;;5034099;28;20017;-88
2021/12/24 14:09:32;;;;;;;8.00;2.22;;;19.90;46.60;;;;;;5034724;28;20478;-91
2021/12/24 14:12:06;;;;;;;10.90;2.50;;;20.00;46.70;;;;;;5034421;28;20544;-89
2021/12/24 14:14:51;;;;;;;9.20;2.30;;;20.00;46.60;;;;;;5034205;28;20382;-89
2021/12/24 14:22:23;;;;;;;7.03;2.17;;;20.20;46.80;;;;;;5046429;28;20021;-90
2021/12/24 14:25:01;;;;;;;6.07;2.20;;;20.30;46.70;;;;;;5053927;28;20103;-90
2021/12/24 14:27:30;;;;;;;9.45;2.33;;;20.30;46.70;;;;;;5052527;28;20028;-89
2021/12/24 14:30:08;;;;;;;8.55;2.13;;;20.40;46.60;;;;;;5052265;28;20035;-88
2021/12/24 14:32:37;;;;;;;7.07;1.95;;;20.50;46.50;;;;;;5053976;28;20051;-88
2021/12/24 14:35:19;;;;;;;10.77;2.25;;;20.60;46.40;;;;;;5052442;28;20021;-89
2021/12/24 14:37:55;;;;;;;6.97;2.10;;;20.70;46.40;;;;;;5052367;28;20025;-87
2021/12/24 14:40:22;;;;;;;7.28;1.85;;;20.70;46.20;;;;;;5053537;28;20108;-87
2021/12/24 14:42:51;;;;;;;6.13;2.30;;;20.80;46.10;;;;;;5052258;28;20028;-88
2021/12/24 14:45:24;;;;;;;8.25;2.08;;;20.80;45.90;;;;;;5054002;28;20031;-90
2021/12/24 14:48:24;;;;;;;8.65;2.00;;;20.90;45.90;;;;;;5052930;28;20367;-89
2021/12/24 14:51:02;;;;;;;7.13;2.10;;;20.90;45.80;;;;;;5052229;28;20029;-89